History for ISMITHSP3

Gilbert Hill, Smith's, Smith's Parish — Current Conditions
Daily Summary for November 12, 2018
  Current: High: Low: Average:
Temperature: 69.6°F 71.4°F 67.3°F 69.4°F
Dew Point: 61.0°F 66.0°F 61.0°F 36.7°F
Humidity: 74% 91% 74% 46%
Wind Speed: 9.0mph 15.0mph - 4.9mph
Wind Gust: 19.0mph 24.0mph - -
Wind: East - - NE
Pressure: 30.34in 30.34in 30.11in -
Precipitation: 0.00in      
Solar Radiation: 0 watts/m^2      
UV Index: 0.0      
Statistics for the rest of the month
    High: Low: Average:
Temperature:   80.1°F 67.3°F 74.8°F
Dew Point:   74.0°F 54.0°F 38.1°F
Humidity:   96.0% 49.0% 44.2%
Wind Speed:   16.0mph from the ESE - 1.7mph
Wind Gust:   25.0mph from the North - -
Wind:   - - ESE
Pressure:   30.34in 29.96in -
Precipitation:   0.00in    
ISMITHSP3 Weather Graph
Tabular Data for November 12, 2018
Time Temp. Dew Point Pressure Wind Gust Humidity Rainfall
00:00 0.00°F 0.00°F 30.11in - % 0.00in
00:15 0.00°F 0.00°F 30.11in - % 0.00in
00:30 0.00°F 0.00°F 30.11in - % 0.00in
00:45 0.00°F 0.00°F 30.11in - % 0.00in
01:00 0.00°F 0.00°F 30.11in - % 0.00in
01:15 0.00°F 0.00°F 30.11in - % 0.00in
01:30 0.00°F 0.00°F 30.11in - % 0.00in
01:45 0.00°F 0.00°F 30.11in - % 0.00in
02:00 0.00°F 0.00°F 30.12in - % 0.00in
02:15 0.00°F 0.00°F 30.12in - % 0.00in
02:30 0.00°F 0.00°F 30.12in - % 0.00in
02:45 0.00°F 0.00°F 30.12in - % 0.00in
03:00 0.00°F 0.00°F 30.12in - % 0.00in
03:15 0.00°F 0.00°F 30.12in - % 0.00in
03:30 0.00°F 0.00°F 30.12in - % 0.00in
03:45 0.00°F 0.00°F 30.12in - % 0.00in
04:00 0.00°F 0.00°F 30.13in - % 0.00in
04:15 0.00°F 0.00°F 30.13in - % 0.00in
04:30 0.00°F 0.00°F 30.13in - % 0.00in
04:45 0.00°F 0.00°F 30.14in - % 0.00in
05:00 0.00°F 0.00°F 30.15in - % 0.00in
05:15 0.00°F 0.00°F 30.15in - % 0.00in
05:30 0.00°F 0.00°F 30.17in - % 0.00in
05:45 0.00°F 0.00°F 30.17in - % 0.00in
06:00 0.00°F 0.00°F 30.17in - % 0.00in
06:15 0.00°F 0.00°F 30.18in - % 0.00in
06:30 0.00°F 0.00°F 30.19in - % 0.00in
06:45 0.00°F 0.00°F 30.19in - % 0.00in
07:00 0.00°F 0.00°F 30.20in - % 0.00in
07:15 0.00°F 0.00°F 30.21in - % 0.00in
07:30 0.00°F 0.00°F 30.22in - % 0.00in
08:45 68.3°F 64.0°F 30.23in 20.0mph 87% 0.00in
09:30 67.3°F 65.0°F 30.25in 20.0mph 91% 0.00in
09:45 67.8°F 65.0°F 30.25in 23.0mph 90% 0.00in
10:15 69.9°F 66.0°F 30.26in 24.0mph 87% 0.00in
11:00 71.4°F 65.0°F 30.25in 22.0mph 80% 0.00in
11:45 69.8°F 64.0°F 30.24in 21.0mph 83% 0.00in
12:15 69.5°F 65.0°F 30.24in 19.0mph 85% 0.00in
12:45 68.0°F 64.0°F 30.24in 20.0mph 88% 0.00in
13:15 68.1°F 65.0°F 30.23in 19.0mph 88% 0.00in
13:45 69.7°F 64.0°F 30.23in 19.0mph 83% 0.00in
14:30 69.2°F 64.0°F 30.23in 18.0mph 82% 0.00in
15:00 69.7°F 64.0°F 30.23in 16.0mph 81% 0.00in
15:15 70.1°F 64.0°F 30.23in 23.0mph 80% 0.00in
15:30 70.7°F 64.0°F 30.23in 19.0mph 79% 0.00in
15:45 70.5°F 63.0°F 30.24in 18.0mph 78% 0.00in
16:00 70.3°F 64.0°F 30.24in 15.0mph 79% 0.00in
16:15 69.9°F 63.0°F 30.25in 18.0mph 78% 0.00in
16:30 69.9°F 63.0°F 30.25in 20.0mph 79% 0.00in
16:45 69.8°F 63.0°F 30.25in 22.0mph 78% 0.00in
17:00 69.5°F 62.0°F 30.25in 21.0mph 78% 0.00in
17:15 69.3°F 63.0°F 30.26in 15.0mph 79% 0.00in
17:30 69.2°F 62.0°F 30.26in 16.0mph 78% 0.00in
17:45 69.4°F 62.0°F 30.26in 16.0mph 78% 0.00in
18:00 69.4°F 62.0°F 30.26in 16.0mph 78% 0.00in
18:15 69.3°F 62.0°F 30.26in 15.0mph 77% 0.00in
18:30 69.2°F 62.0°F 30.26in 20.0mph 78% 0.00in
18:45 69.0°F 62.0°F 30.27in 15.0mph 77% 0.00in
19:00 68.8°F 61.0°F 30.27in 20.0mph 77% 0.00in
19:15 68.8°F 61.0°F 30.27in 18.0mph 77% 0.00in
19:30 69.0°F 62.0°F 30.28in 15.0mph 77% 0.00in
19:45 68.9°F 61.0°F 30.29in 15.0mph 76% 0.00in
20:00 68.9°F 61.0°F 30.29in 18.0mph 76% 0.00in
20:15 68.8°F 61.0°F 30.29in 15.0mph 76% 0.00in
20:30 68.9°F 61.0°F 30.30in 18.0mph 76% 0.00in
20:45 69.0°F 61.0°F 30.31in 19.0mph 76% 0.00in
21:00 68.9°F 61.0°F 30.32in 14.0mph 76% 0.00in
21:15 68.8°F 61.0°F 30.33in 19.0mph 76% 0.00in
21:30 69.0°F 61.0°F 30.34in 18.0mph 75% 0.00in
21:45 69.3°F 61.0°F 30.34in 16.0mph 76% 0.00in
22:00 69.5°F 61.0°F 30.34in 15.0mph 75% 0.00in
22:15 69.4°F 61.0°F 30.34in 16.0mph 74% 0.00in
22:30 69.5°F 61.0°F 30.34in 16.0mph 74% 0.00in
22:45 69.7°F 61.0°F 30.34in 19.0mph 74% 0.00in
23:00 69.6°F 61.0°F 30.34in 19.0mph 74% 0.00in
Comma Delimited File
Powered by Weather Underground, Inc.